sensor_id;sensor_type;location;lat;lon;timestamp;pressure;altitude;pressure_sealevel;temperature;humidity
47080;BME280;33067;49.296;14.470;2024-01-07T00:01:35;96147.74;;;3.36;52.73
47080;BME280;33067;49.296;14.470;2024-01-07T00:04:00;96145.96;;;3.29;52.56
47080;BME280;33067;49.296;14.470;2024-01-07T00:06:26;96149.01;;;3.37;53.01
47080;BME280;33067;49.296;14.470;2024-01-07T00:08:52;96147.80;;;3.54;52.74
47080;BME280;33067;49.296;14.470;2024-01-07T00:11:18;96152.87;;;2.91;52.50
47080;BME280;33067;49.296;14.470;2024-01-07T00:13:45;96144.64;;;2.54;53.88
47080;BME280;33067;49.296;14.470;2024-01-07T00:16:09;96150.09;;;3.17;53.17
47080;BME280;33067;49.296;14.470;2024-01-07T00:18:35;96149.35;;;2.63;53.78
47080;BME280;33067;49.296;14.470;2024-01-07T00:21:00;96153.67;;;2.50;54.15
47080;BME280;33067;49.296;14.470;2024-01-07T00:23:26;96158.89;;;2.58;54.43
47080;BME280;33067;49.296;14.470;2024-01-07T00:25:51;96151.94;;;2.37;55.01
47080;BME280;33067;49.296;14.470;2024-01-07T00:28:17;96153.65;;;2.76;53.89
47080;BME280;33067;49.296;14.470;2024-01-07T00:30:42;96156.84;;;2.72;53.46
47080;BME280;33067;49.296;14.470;2024-01-07T00:33:07;96156.47;;;3.00;52.72
47080;BME280;33067;49.296;14.470;2024-01-07T00:35:33;96163.91;;;1.77;55.65
47080;BME280;33067;49.296;14.470;2024-01-07T00:37:59;96161.37;;;1.34;57.37
47080;BME280;33067;49.296;14.470;2024-01-07T00:40:24;96163.92;;;1.35;56.76
47080;BME280;33067;49.296;14.470;2024-01-07T00:42:50;96167.76;;;1.46;57.03
47080;BME280;33067;49.296;14.470;2024-01-07T00:45:15;96168.60;;;1.73;56.08
47080;BME280;33067;49.296;14.470;2024-01-07T00:47:41;96161.91;;;2.05;55.35
47080;BME280;33067;49.296;14.470;2024-01-07T00:50:06;96177.70;;;0.69;58.39
47080;BME280;33067;49.296;14.470;2024-01-07T00:52:31;96174.84;;;2.01;55.91
47080;BME280;33067;49.296;14.470;2024-01-07T00:54:56;96172.21;;;1.48;57.63
47080;BME280;33067;49.296;14.470;2024-01-07T00:57:22;96176.49;;;1.94;55.77
47080;BME280;33067;49.296;14.470;2024-01-07T00:59:52;96174.50;;;2.20;55.47
47080;BME280;33067;49.296;14.470;2024-01-07T01:02:13;96177.43;;;2.23;55.87
47080;BME280;33067;49.296;14.470;2024-01-07T01:04:39;96190.33;;;2.09;55.71
47080;BME280;33067;49.296;14.470;2024-01-07T01:07:03;96183.42;;;2.51;54.75
47080;BME280;33067;49.296;14.470;2024-01-07T01:09:29;96185.18;;;1.75;55.68
47080;BME280;33067;49.296;14.470;2024-01-07T01:11:54;96188.52;;;1.65;55.83
47080;BME280;33067;49.296;14.470;2024-01-07T01:14:20;96192.90;;;1.92;55.74
47080;BME280;33067;49.296;14.470;2024-01-07T01:16:45;96188.82;;;1.67;56.51
47080;BME280;33067;49.296;14.470;2024-01-07T01:19:10;96194.68;;;1.73;55.53
47080;BME280;33067;49.296;14.470;2024-01-07T01:21:35;96190.30;;;2.40;54.67
47080;BME280;33067;49.296;14.470;2024-01-07T01:24:01;96191.83;;;1.06;57.26
47080;BME280;33067;49.296;14.470;2024-01-07T01:26:26;96198.73;;;0.77;57.93
47080;BME280;33067;49.296;14.470;2024-01-07T01:28:51;96197.89;;;1.33;57.29
47080;BME280;33067;49.296;14.470;2024-01-07T01:31:16;96197.61;;;1.46;56.55
47080;BME280;33067;49.296;14.470;2024-01-07T01:33:42;96198.89;;;1.88;56.05
47080;BME280;33067;49.296;14.470;2024-01-07T01:36:07;96199.06;;;2.74;53.72
47080;BME280;33067;49.296;14.470;2024-01-07T01:38:32;96205.49;;;1.93;54.77
47080;BME280;33067;49.296;14.470;2024-01-07T01:40:58;96205.72;;;1.25;55.77
47080;BME280;33067;49.296;14.470;2024-01-07T01:43:24;96208.24;;;1.41;56.11
47080;BME280;33067;49.296;14.470;2024-01-07T01:45:49;96206.95;;;1.84;55.71
47080;BME280;33067;49.296;14.470;2024-01-07T01:48:15;96205.94;;;2.03;55.23
47080;BME280;33067;49.296;14.470;2024-01-07T01:50:40;96204.43;;;1.86;55.07
47080;BME280;33067;49.296;14.470;2024-01-07T01:53:06;96212.79;;;1.88;54.67
47080;BME280;33067;49.296;14.470;2024-01-07T01:55:31;96209.48;;;2.05;54.24
47080;BME280;33067;49.296;14.470;2024-01-07T01:57:57;96209.88;;;1.56;55.26
47080;BME280;33067;49.296;14.470;2024-01-07T02:00:22;96207.18;;;1.77;55.05
47080;BME280;33067;49.296;14.470;2024-01-07T02:02:48;96211.76;;;2.56;53.51
47080;BME280;33067;49.296;14.470;2024-01-07T02:05:13;96208.87;;;1.79;54.81
47080;BME280;33067;49.296;14.470;2024-01-07T02:07:39;96211.62;;;1.35;56.15
47080;BME280;33067;49.296;14.470;2024-01-07T02:10:05;96204.18;;;1.47;56.28
47080;BME280;33067;49.296;14.470;2024-01-07T02:12:30;96204.16;;;1.88;54.84
47080;BME280;33067;49.296;14.470;2024-01-07T02:14:55;96204.83;;;1.86;54.85
47080;BME280;33067;49.296;14.470;2024-01-07T02:17:20;96202.43;;;1.51;54.75
47080;BME280;33067;49.296;14.470;2024-01-07T02:19:45;96206.18;;;2.15;54.23
47080;BME280;33067;49.296;14.470;2024-01-07T02:22:10;96207.79;;;2.13;54.56
47080;BME280;33067;49.296;14.470;2024-01-07T02:24:35;96205.33;;;2.35;54.39
47080;BME280;33067;49.296;14.470;2024-01-07T02:27:00;96202.53;;;1.89;53.71
47080;BME280;33067;49.296;14.470;2024-01-07T02:29:26;96203.94;;;2.07;54.47
47080;BME280;33067;49.296;14.470;2024-01-07T02:31:52;96203.64;;;2.24;53.77
47080;BME280;33067;49.296;14.470;2024-01-07T02:34:17;96208.32;;;1.89;54.63
47080;BME280;33067;49.296;14.470;2024-01-07T02:36:43;96204.98;;;1.98;55.38
47080;BME280;33067;49.296;14.470;2024-01-07T02:39:08;96203.70;;;1.78;54.36
47080;BME280;33067;49.296;14.470;2024-01-07T02:41:34;96206.03;;;2.10;53.73
47080;BME280;33067;49.296;14.470;2024-01-07T02:43:59;96212.53;;;1.10;55.94
47080;BME280;33067;49.296;14.470;2024-01-07T02:46:25;96210.47;;;1.72;55.04
47080;BME280;33067;49.296;14.470;2024-01-07T02:48:50;96214.67;;;1.45;55.98
47080;BME280;33067;49.296;14.470;2024-01-07T02:51:16;96213.02;;;2.18;54.45
47080;BME280;33067;49.296;14.470;2024-01-07T02:53:41;96215.17;;;2.18;54.64
47080;BME280;33067;49.296;14.470;2024-01-07T02:56:06;96213.02;;;1.54;54.33
47080;BME280;33067;49.296;14.470;2024-01-07T02:58:32;96211.82;;;1.18;55.37
47080;BME280;33067;49.296;14.470;2024-01-07T03:00:58;96209.09;;;2.08;54.50
47080;BME280;33067;49.296;14.470;2024-01-07T03:03:22;96210.62;;;2.00;54.09
47080;BME280;33067;49.296;14.470;2024-01-07T03:05:48;96210.41;;;0.84;56.53
47080;BME280;33067;49.296;14.470;2024-01-07T03:08:13;96209.16;;;1.78;54.48
47080;BME280;33067;49.296;14.470;2024-01-07T03:13:03;96213.90;;;1.54;54.12
47080;BME280;33067;49.296;14.470;2024-01-07T03:15:27;96216.96;;;1.52;53.81
47080;BME280;33067;49.296;14.470;2024-01-07T03:17:53;96213.77;;;1.48;54.82
47080;BME280;33067;49.296;14.470;2024-01-07T03:20:18;96216.16;;;1.42;54.52
47080;BME280;33067;49.296;14.470;2024-01-07T03:22:45;96213.73;;;2.39;52.82
47080;BME280;33067;49.296;14.470;2024-01-07T03:25:09;96215.14;;;2.36;52.71
47080;BME280;33067;49.296;14.470;2024-01-07T03:27:35;96213.87;;;1.97;52.98
47080;BME280;33067;49.296;14.470;2024-01-07T03:30:00;96220.92;;;2.08;52.66
47080;BME280;33067;49.296;14.470;2024-01-07T03:32:26;96227.70;;;0.70;55.22
47080;BME280;33067;49.296;14.470;2024-01-07T03:34:51;96226.75;;;1.16;55.47
47080;BME280;33067;49.296;14.470;2024-01-07T03:37:16;96217.77;;;1.44;54.99
47080;BME280;33067;49.296;14.470;2024-01-07T03:39:43;96217.64;;;1.10;55.52
47080;BME280;33067;49.296;14.470;2024-01-07T03:42:08;96220.43;;;1.35;54.73
47080;BME280;33067;49.296;14.470;2024-01-07T03:44:34;96219.49;;;1.21;55.15
47080;BME280;33067;49.296;14.470;2024-01-07T03:46:59;96221.94;;;2.03;53.39
47080;BME280;33067;49.296;14.470;2024-01-07T03:49:24;96227.70;;;1.02;54.65
47080;BME280;33067;49.296;14.470;2024-01-07T03:51:50;96229.29;;;2.00;53.89
47080;BME280;33067;49.296;14.470;2024-01-07T03:54:15;96230.18;;;2.28;52.64
47080;BME280;33067;49.296;14.470;2024-01-07T03:56:41;96238.85;;;2.08;52.83
47080;BME280;33067;49.296;14.470;2024-01-07T03:59:07;96236.52;;;2.18;52.24
47080;BME280;33067;49.296;14.470;2024-01-07T04:01:32;96236.12;;;2.65;51.56
47080;BME280;33067;49.296;14.470;2024-01-07T04:03:58;96233.17;;;2.46;51.91
47080;BME280;33067;49.296;14.470;2024-01-07T04:06:23;96235.31;;;2.51;51.87
47080;BME280;33067;49.296;14.470;2024-01-07T04:08:49;96236.09;;;2.40;51.74
47080;BME280;33067;49.296;14.470;2024-01-07T04:11:14;96237.08;;;2.66;51.12
47080;BME280;33067;49.296;14.470;2024-01-07T04:13:40;96236.60;;;3.53;50.07
47080;BME280;33067;49.296;14.470;2024-01-07T04:16:06;96237.77;;;3.81;48.95
47080;BME280;33067;49.296;14.470;2024-01-07T04:18:30;96237.30;;;3.70;48.85
47080;BME280;33067;49.296;14.470;2024-01-07T04:20:55;96242.22;;;3.82;48.98
47080;BME280;33067;49.296;14.470;2024-01-07T04:23:20;96241.61;;;3.60;49.27
47080;BME280;33067;49.296;14.470;2024-01-07T04:25:46;96248.62;;;2.58;49.65
47080;BME280;33067;49.296;14.470;2024-01-07T04:28:12;96253.96;;;2.17;50.11
47080;BME280;33067;49.296;14.470;2024-01-07T04:30:37;96257.65;;;2.82;49.42
47080;BME280;33067;49.296;14.470;2024-01-07T04:33:03;96259.58;;;3.17;49.22
47080;BME280;33067;49.296;14.470;2024-01-07T04:35:28;96260.36;;;2.91;49.08
47080;BME280;33067;49.296;14.470;2024-01-07T04:37:53;96268.85;;;2.56;49.75
47080;BME280;33067;49.296;14.470;2024-01-07T04:40:19;96268.46;;;2.30;50.81
47080;BME280;33067;49.296;14.470;2024-01-07T04:42:44;96271.87;;;2.24;50.87
47080;BME280;33067;49.296;14.470;2024-01-07T04:45:09;96271.49;;;2.58;50.21
47080;BME280;33067;49.296;14.470;2024-01-07T04:47:34;96277.15;;;2.78;49.53
47080;BME280;33067;49.296;14.470;2024-01-07T04:50:00;96280.05;;;2.04;50.52
47080;BME280;33067;49.296;14.470;2024-01-07T04:52:26;96283.82;;;1.18;51.97
47080;BME280;33067;49.296;14.470;2024-01-07T04:54:51;96279.37;;;1.15;51.94
47080;BME280;33067;49.296;14.470;2024-01-07T04:57:16;96290.10;;;-0.15;55.59
47080;BME280;33067;49.296;14.470;2024-01-07T04:59:41;96291.69;;;-0.27;55.78
47080;BME280;33067;49.296;14.470;2024-01-07T05:02:07;96290.23;;;-0.91;57.55
47080;BME280;33067;49.296;14.470;2024-01-07T05:04:32;96294.62;;;-0.44;57.78
47080;BME280;33067;49.296;14.470;2024-01-07T05:06:57;96302.45;;;0.66;54.55
47080;BME280;33067;49.296;14.470;2024-01-07T05:09:23;96304.24;;;0.99;53.84
47080;BME280;33067;49.296;14.470;2024-01-07T05:11:48;96310.18;;;0.76;53.83
47080;BME280;33067;49.296;14.470;2024-01-07T05:14:13;96315.19;;;0.59;53.08
47080;BME280;33067;49.296;14.470;2024-01-07T05:16:39;96317.09;;;0.66;53.89
47080;BME280;33067;49.296;14.470;2024-01-07T05:19:04;96315.32;;;0.13;54.81
47080;BME280;33067;49.296;14.470;2024-01-07T05:21:30;96322.18;;;0.31;54.73
47080;BME280;33067;49.296;14.470;2024-01-07T05:23:55;96320.81;;;0.48;54.67
47080;BME280;33067;49.296;14.470;2024-01-07T05:26:21;96320.85;;;1.00;52.14
47080;BME280;33067;49.296;14.470;2024-01-07T05:28:46;96320.38;;;0.72;53.20
47080;BME280;33067;49.296;14.470;2024-01-07T05:31:15;96326.44;;;0.04;53.76
47080;BME280;33067;49.296;14.470;2024-01-07T05:33:37;96325.77;;;1.15;52.70
47080;BME280;33067;49.296;14.470;2024-01-07T05:36:04;96329.76;;;0.72;53.06
47080;BME280;33067;49.296;14.470;2024-01-07T05:38:28;96331.92;;;0.21;54.23
47080;BME280;33067;49.296;14.470;2024-01-07T05:40:53;96331.37;;;-0.36;54.76
47080;BME280;33067;49.296;14.470;2024-01-07T05:43:18;96333.31;;;-0.76;55.23
47080;BME280;33067;49.296;14.470;2024-01-07T05:45:44;96336.18;;;-0.11;54.70
47080;BME280;33067;49.296;14.470;2024-01-07T05:48:09;96341.46;;;-0.38;55.17
47080;BME280;33067;49.296;14.470;2024-01-07T05:50:35;96341.77;;;0.20;53.80
47080;BME280;33067;49.296;14.470;2024-01-07T05:53:00;96349.46;;;0.59;53.69
47080;BME280;33067;49.296;14.470;2024-01-07T05:55:25;96349.31;;;0.17;53.44
47080;BME280;33067;49.296;14.470;2024-01-07T05:57:51;96350.73;;;0.13;54.19
47080;BME280;33067;49.296;14.470;2024-01-07T06:00:17;96355.60;;;0.36;53.59
47080;BME280;33067;49.296;14.470;2024-01-07T06:02:43;96359.42;;;0.25;53.66
47080;BME280;33067;49.296;14.470;2024-01-07T06:05:09;96363.02;;;0.06;53.30
47080;BME280;33067;49.296;14.470;2024-01-07T06:07:33;96363.94;;;0.87;51.45
47080;BME280;33067;49.296;14.470;2024-01-07T06:09:59;96366.33;;;-0.14;53.52
47080;BME280;33067;49.296;14.470;2024-01-07T06:12:24;96364.09;;;0.48;52.09
47080;BME280;33067;49.296;14.470;2024-01-07T06:15:00;96369.47;;;0.35;51.68
47080;BME280;33067;49.296;14.470;2024-01-07T06:17:15;96366.74;;;1.58;49.77
47080;BME280;33067;49.296;14.470;2024-01-07T06:19:40;96370.37;;;1.43;49.42
47080;BME280;33067;49.296;14.470;2024-01-07T06:22:06;96379.61;;;0.41;51.74
47080;BME280;33067;49.296;14.470;2024-01-07T06:24:31;96376.77;;;1.25;49.49
47080;BME280;33067;49.296;14.470;2024-01-07T06:26:57;96381.83;;;-0.46;53.04
47080;BME280;33067;49.296;14.470;2024-01-07T06:29:22;96386.12;;;1.18;50.77
47080;BME280;33067;49.296;14.470;2024-01-07T06:31:48;96393.27;;;1.05;50.96
47080;BME280;33067;49.296;14.470;2024-01-07T06:34:14;96388.38;;;0.93;49.23
47080;BME280;33067;49.296;14.470;2024-01-07T06:36:40;96392.23;;;0.73;49.68
47080;BME280;33067;49.296;14.470;2024-01-07T06:39:04;96396.10;;;-0.77;49.17
47080;BME280;33067;49.296;14.470;2024-01-07T06:41:29;96404.68;;;0.49;49.52
47080;BME280;33067;49.296;14.470;2024-01-07T06:43:54;96399.07;;;0.58;49.63
47080;BME280;33067;49.296;14.470;2024-01-07T06:46:20;96401.95;;;0.70;49.58
47080;BME280;33067;49.296;14.470;2024-01-07T06:48:45;96400.90;;;0.44;51.00
47080;BME280;33067;49.296;14.470;2024-01-07T06:51:11;96400.58;;;-0.05;51.58
47080;BME280;33067;49.296;14.470;2024-01-07T06:53:37;96408.28;;;-0.09;52.20
47080;BME280;33067;49.296;14.470;2024-01-07T06:56:02;96408.42;;;0.71;50.92
47080;BME280;33067;49.296;14.470;2024-01-07T06:58:28;96407.15;;;0.41;51.29
47080;BME280;33067;49.296;14.470;2024-01-07T07:00:53;96413.66;;;-0.19;52.69
47080;BME280;33067;49.296;14.470;2024-01-07T07:03:19;96416.80;;;0.42;51.40
47080;BME280;33067;49.296;14.470;2024-01-07T07:05:44;96424.94;;;0.99;49.92
47080;BME280;33067;49.296;14.470;2024-01-07T07:08:09;96425.08;;;0.51;51.10
47080;BME280;33067;49.296;14.470;2024-01-07T07:10:35;96433.54;;;0.52;50.94
47080;BME280;33067;49.296;14.470;2024-01-07T07:13:00;96436.25;;;0.62;50.65
47080;BME280;33067;49.296;14.470;2024-01-07T07:15:26;96436.80;;;0.70;50.79
47080;BME280;33067;49.296;14.470;2024-01-07T07:17:51;96438.79;;;0.70;50.06
47080;BME280;33067;49.296;14.470;2024-01-07T07:20:16;96443.97;;;1.07;50.20
47080;BME280;33067;49.296;14.470;2024-01-07T07:22:42;96440.50;;;-0.12;51.53
47080;BME280;33067;49.296;14.470;2024-01-07T07:25:09;96444.58;;;0.16;51.40
47080;BME280;33067;49.296;14.470;2024-01-07T07:27:33;96451.65;;;-0.83;53.84
47080;BME280;33067;49.296;14.470;2024-01-07T07:29:58;96453.75;;;-0.22;52.46
47080;BME280;33067;49.296;14.470;2024-01-07T07:32:23;96454.33;;;-0.98;54.28
47080;BME280;33067;49.296;14.470;2024-01-07T07:34:49;96455.76;;;-0.36;53.37
47080;BME280;33067;49.296;14.470;2024-01-07T07:37:14;96458.72;;;-1.39;55.37
47080;BME280;33067;49.296;14.470;2024-01-07T07:39:40;96460.75;;;-1.33;55.80
47080;BME280;33067;49.296;14.470;2024-01-07T07:42:05;96466.69;;;-0.95;54.71
47080;BME280;33067;49.296;14.470;2024-01-07T07:44:30;96465.97;;;0.02;52.96
47080;BME280;33067;49.296;14.470;2024-01-07T07:46:56;96468.84;;;-0.11;53.06
47080;BME280;33067;49.296;14.470;2024-01-07T07:49:21;96470.77;;;0.21;52.37
47080;BME280;33067;49.296;14.470;2024-01-07T07:51:47;96478.00;;;0.02;52.17
47080;BME280;33067;49.296;14.470;2024-01-07T07:54:12;96478.79;;;0.75;51.33
47080;BME280;33067;49.296;14.470;2024-01-07T07:56:37;96479.45;;;0.22;51.24
47080;BME280;33067;49.296;14.470;2024-01-07T07:59:03;96493.07;;;-0.39;52.23
47080;BME280;33067;49.296;14.470;2024-01-07T08:01:28;96490.48;;;-0.14;52.70
47080;BME280;33067;49.296;14.470;2024-01-07T08:03:53;96501.02;;;-0.49;52.74
47080;BME280;33067;49.296;14.470;2024-01-07T08:06:19;96499.52;;;-0.03;51.83
47080;BME280;33067;49.296;14.470;2024-01-07T08:08:44;96498.82;;;0.73;50.73
47080;BME280;33067;49.296;14.470;2024-01-07T08:11:09;96510.80;;;-1.09;53.49
47080;BME280;33067;49.296;14.470;2024-01-07T08:13:36;96512.29;;;0.35;51.93
47080;BME280;33067;49.296;14.470;2024-01-07T08:16:00;96509.97;;;0.51;51.45
47080;BME280;33067;49.296;14.470;2024-01-07T08:18:25;96512.54;;;0.12;52.12
47080;BME280;33067;49.296;14.470;2024-01-07T08:20:50;96515.11;;;0.86;50.97
47080;BME280;33067;49.296;14.470;2024-01-07T08:23:15;96514.25;;;1.40;48.94
47080;BME280;33067;49.296;14.470;2024-01-07T08:25:41;96524.48;;;-0.21;50.31
47080;BME280;33067;49.296;14.470;2024-01-07T08:28:06;96525.74;;;0.36;50.04
47080;BME280;33067;49.296;14.470;2024-01-07T08:30:32;96525.86;;;0.56;49.26
47080;BME280;33067;49.296;14.470;2024-01-07T08:32:59;96530.63;;;1.23;48.55
47080;BME280;33067;49.296;14.470;2024-01-07T08:35:23;96535.81;;;1.05;48.45
47080;BME280;33067;49.296;14.470;2024-01-07T08:37:49;96537.19;;;0.47;48.91
47080;BME280;33067;49.296;14.470;2024-01-07T08:40:14;96546.13;;;-0.05;49.93
47080;BME280;33067;49.296;14.470;2024-01-07T08:42:39;96541.97;;;0.46;49.16
47080;BME280;33067;49.296;14.470;2024-01-07T08:45:06;96546.01;;;0.75;49.05
47080;BME280;33067;49.296;14.470;2024-01-07T08:47:30;96546.49;;;-0.59;50.57
47080;BME280;33067;49.296;14.470;2024-01-07T08:49:56;96555.89;;;0.09;50.16
47080;BME280;33067;49.296;14.470;2024-01-07T08:52:21;96563.00;;;-0.76;51.59
47080;BME280;33067;49.296;14.470;2024-01-07T08:54:46;96571.12;;;-0.42;50.96
47080;BME280;33067;49.296;14.470;2024-01-07T08:57:11;96573.44;;;-1.06;52.09
47080;BME280;33067;49.296;14.470;2024-01-07T08:59:37;96583.07;;;-0.99;52.10
47080;BME280;33067;49.296;14.470;2024-01-07T09:02:02;96586.49;;;-1.66;54.00
47080;BME280;33067;49.296;14.470;2024-01-07T09:04:28;96589.03;;;-1.63;53.84
47080;BME280;33067;49.296;14.470;2024-01-07T09:06:53;96590.02;;;-1.89;53.93
47080;BME280;33067;49.296;14.470;2024-01-07T09:09:19;96600.29;;;-1.33;53.31
47080;BME280;33067;49.296;14.470;2024-01-07T09:11:44;96595.26;;;-1.13;52.73
47080;BME280;33067;49.296;14.470;2024-01-07T09:14:09;96597.65;;;-0.33;51.37
47080;BME280;33067;49.296;14.470;2024-01-07T09:16:34;96597.89;;;-0.31;51.02
47080;BME280;33067;49.296;14.470;2024-01-07T09:18:59;96595.56;;;-0.11;50.90
47080;BME280;33067;49.296;14.470;2024-01-07T09:21:25;96596.62;;;0.28;50.09
47080;BME280;33067;49.296;14.470;2024-01-07T09:23:50;96600.33;;;0.47;49.62
47080;BME280;33067;49.296;14.470;2024-01-07T09:26:16;96596.79;;;-0.16;50.53
47080;BME280;33067;49.296;14.470;2024-01-07T09:28:42;96599.87;;;0.03;49.96
47080;BME280;33067;49.296;14.470;2024-01-07T09:31:08;96602.02;;;0.38;50.11
47080;BME280;33067;49.296;14.470;2024-01-07T09:33:33;96603.38;;;0.82;48.83
47080;BME280;33067;49.296;14.470;2024-01-07T09:35:59;96605.12;;;1.25;47.88
47080;BME280;33067;49.296;14.470;2024-01-07T09:38:27;96602.87;;;1.06;47.92
47080;BME280;33067;49.296;14.470;2024-01-07T09:40:51;96605.11;;;1.39;47.48
47080;BME280;33067;49.296;14.470;2024-01-07T09:43:16;96604.59;;;1.14;47.40
47080;BME280;33067;49.296;14.470;2024-01-07T09:45:44;96609.04;;;1.01;48.44
47080;BME280;33067;49.296;14.470;2024-01-07T09:48:13;96603.67;;;0.81;48.20
47080;BME280;33067;49.296;14.470;2024-01-07T09:50:33;96602.77;;;0.14;48.41
47080;BME280;33067;49.296;14.470;2024-01-07T09:52:58;96606.37;;;-0.02;49.22
47080;BME280;33067;49.296;14.470;2024-01-07T09:55:30;96607.60;;;-0.17;49.74
47080;BME280;33067;49.296;14.470;2024-01-07T09:57:49;96603.16;;;0.20;48.98
47080;BME280;33067;49.296;14.470;2024-01-07T10:00:15;96606.12;;;-0.74;51.08
47080;BME280;33067;49.296;14.470;2024-01-07T10:02:40;96601.31;;;-0.95;51.64
47080;BME280;33067;49.296;14.470;2024-01-07T10:05:06;96602.04;;;0.02;50.74
47080;BME280;33067;49.296;14.470;2024-01-07T10:07:31;96603.93;;;-0.06;50.49
47080;BME280;33067;49.296;14.470;2024-01-07T10:09:56;96600.51;;;-0.52;52.17
47080;BME280;33067;49.296;14.470;2024-01-07T10:12:23;96603.30;;;-0.02;51.08
47080;BME280;33067;49.296;14.470;2024-01-07T10:14:48;96603.66;;;-0.50;51.59
47080;BME280;33067;49.296;14.470;2024-01-07T10:17:15;96606.08;;;-0.22;51.34
47080;BME280;33067;49.296;14.470;2024-01-07T10:19:38;96608.64;;;-0.39;50.77
47080;BME280;33067;49.296;14.470;2024-01-07T10:22:05;96610.19;;;0.36;49.36
47080;BME280;33067;49.296;14.470;2024-01-07T10:24:35;96606.99;;;0.90;48.80
47080;BME280;33067;49.296;14.470;2024-01-07T10:26:55;96609.44;;;0.88;47.77
47080;BME280;33067;49.296;14.470;2024-01-07T10:29:21;96610.57;;;0.34;48.65
47080;BME280;33067;49.296;14.470;2024-01-07T10:31:46;96612.22;;;0.39;48.83
47080;BME280;33067;49.296;14.470;2024-01-07T10:34:12;96613.83;;;-0.61;50.74
47080;BME280;33067;49.296;14.470;2024-01-07T10:36:37;96614.33;;;-0.29;50.63
47080;BME280;33067;49.296;14.470;2024-01-07T10:39:02;96619.75;;;-0.17;51.06
47080;BME280;33067;49.296;14.470;2024-01-07T10:41:27;96616.26;;;-0.34;51.13
47080;BME280;33067;49.296;14.470;2024-01-07T10:43:53;96618.14;;;0.14;50.75
47080;BME280;33067;49.296;14.470;2024-01-07T10:46:18;96620.38;;;0.32;50.15
47080;BME280;33067;49.296;14.470;2024-01-07T10:48:52;96619.99;;;0.28;50.53
47080;BME280;33067;49.296;14.470;2024-01-07T10:51:10;96622.71;;;-0.38;51.04
47080;BME280;33067;49.296;14.470;2024-01-07T10:53:34;96619.21;;;0.37;49.97
47080;BME280;33067;49.296;14.470;2024-01-07T10:56:02;96623.36;;;-1.92;53.62
47080;BME280;33067;49.296;14.470;2024-01-07T10:58:25;96619.56;;;-0.91;52.56
47080;BME280;33067;49.296;14.470;2024-01-07T11:00:50;96624.65;;;-1.31;53.09
47080;BME280;33067;49.296;14.470;2024-01-07T11:03:20;96625.45;;;-1.50;53.07
47080;BME280;33067;49.296;14.470;2024-01-07T11:05:47;96629.23;;;-1.10;53.33
47080;BME280;33067;49.296;14.470;2024-01-07T11:08:15;96628.46;;;-0.42;52.24
47080;BME280;33067;49.296;14.470;2024-01-07T11:10:38;96625.60;;;-0.11;50.96
47080;BME280;33067;49.296;14.470;2024-01-07T11:12:57;96626.23;;;-0.19;50.85
47080;BME280;33067;49.296;14.470;2024-01-07T11:17:48;96631.19;;;-0.45;50.19
47080;BME280;33067;49.296;14.470;2024-01-07T11:20:19;96638.50;;;-1.70;52.86
47080;BME280;33067;49.296;14.470;2024-01-07T11:22:41;96632.88;;;-0.81;51.72
47080;BME280;33067;49.296;14.470;2024-01-07T11:27:31;96647.60;;;-1.82;52.42
47080;BME280;33067;49.296;14.470;2024-01-07T11:29:56;96635.68;;;-1.99;53.20
47080;BME280;33067;49.296;14.470;2024-01-07T11:32:22;96636.02;;;-1.32;51.66
47080;BME280;33067;49.296;14.470;2024-01-07T11:34:46;96642.72;;;-1.57;52.68
47080;BME280;33067;49.296;14.470;2024-01-07T11:37:13;96641.68;;;-0.95;51.41
47080;BME280;33067;49.296;14.470;2024-01-07T11:39:38;96644.72;;;-1.78;52.68
47080;BME280;33067;49.296;14.470;2024-01-07T11:42:08;96645.62;;;-1.66;52.18
47080;BME280;33067;49.296;14.470;2024-01-07T11:44:29;96647.51;;;-2.10;52.95
47080;BME280;33067;49.296;14.470;2024-01-07T11:46:54;96651.06;;;-1.14;51.38
47080;BME280;33067;49.296;14.470;2024-01-07T11:49:20;96648.53;;;-1.39;51.36
47080;BME280;33067;49.296;14.470;2024-01-07T11:51:45;96650.64;;;-1.00;51.01
47080;BME280;33067;49.296;14.470;2024-01-07T11:54:10;96647.61;;;-0.66;50.18
47080;BME280;33067;49.296;14.470;2024-01-07T11:56:35;96651.86;;;-1.10;51.12
47080;BME280;33067;49.296;14.470;2024-01-07T11:59:01;96649.40;;;-0.21;50.30
47080;BME280;33067;49.296;14.470;2024-01-07T12:01:27;96651.55;;;-0.29;50.11
47080;BME280;33067;49.296;14.470;2024-01-07T12:03:52;96649.61;;;-0.60;49.83
47080;BME280;33067;49.296;14.470;2024-01-07T12:06:20;96651.68;;;0.24;49.58
47080;BME280;33067;49.296;14.470;2024-01-07T12:08:43;96650.67;;;-0.09;49.16
47080;BME280;33067;49.296;14.470;2024-01-07T12:11:07;96650.09;;;-0.68;50.08
47080;BME280;33067;49.296;14.470;2024-01-07T12:13:41;96649.67;;;-0.40;49.87
47080;BME280;33067;49.296;14.470;2024-01-07T12:16:14;96652.99;;;-1.13;51.04
47080;BME280;33067;49.296;14.470;2024-01-07T12:18:25;96647.26;;;-0.87;50.97
47080;BME280;33067;49.296;14.470;2024-01-07T12:20:56;96656.03;;;-1.31;51.37
47080;BME280;33067;49.296;14.470;2024-01-07T12:23:15;96655.35;;;0.08;49.07
47080;BME280;33067;49.296;14.470;2024-01-07T12:25:41;96657.84;;;-0.17;49.15
47080;BME280;33067;49.296;14.470;2024-01-07T12:28:07;96660.67;;;-0.07;48.44
47080;BME280;33067;49.296;14.470;2024-01-07T12:30:31;96664.04;;;-1.06;50.42
47080;BME280;33067;49.296;14.470;2024-01-07T12:32:57;96662.09;;;-0.74;49.85
47080;BME280;33067;49.296;14.470;2024-01-07T12:35:25;96667.28;;;-0.14;50.21
47080;BME280;33067;49.296;14.470;2024-01-07T12:37:48;96664.45;;;0.22;48.78
47080;BME280;33067;49.296;14.470;2024-01-07T12:40:14;96668.41;;;-0.67;50.15
47080;BME280;33067;49.296;14.470;2024-01-07T12:42:39;96670.16;;;-0.28;49.56
47080;BME280;33067;49.296;14.470;2024-01-07T12:45:05;96676.30;;;-1.14;51.43
47080;BME280;33067;49.296;14.470;2024-01-07T12:47:30;96676.98;;;-0.79;51.33
47080;BME280;33067;49.296;14.470;2024-01-07T12:49:55;96676.17;;;-0.09;49.95
47080;BME280;33067;49.296;14.470;2024-01-07T12:52:21;96674.91;;;0.39;49.21
47080;BME280;33067;49.296;14.470;2024-01-07T12:54:46;96676.52;;;0.24;49.25